createdAt,value
2018-07-04T00:00:11.021Z,64.76
2018-07-04T00:02:04.021Z,64.76
2018-07-04T00:03:04.082Z,64.95
2018-07-04T00:04:57.073Z,65.05
2018-07-04T00:05:57.141Z,64.85
2018-07-04T00:07:50.141Z,65.05
2018-07-04T00:08:50.198Z,65.05
2018-07-04T00:10:43.200Z,64.37
2018-07-04T00:11:43.258Z,64.37
2018-07-04T00:13:36.252Z,64.37
2018-07-04T00:14:36.316Z,64.28
2018-07-04T00:16:29.318Z,64.56
2018-07-04T00:17:29.379Z,63.96
2018-07-04T00:19:22.380Z,63.86
2018-07-04T00:20:22.441Z,63.19
2018-07-04T00:22:15.444Z,63.19
2018-07-04T00:23:15.502Z,62.42
2018-07-04T00:25:08.502Z,62.32
2018-07-04T00:26:08.566Z,62.23
2018-07-04T00:28:01.566Z,62.81
2018-07-04T00:29:01.622Z,62.42
2018-07-04T00:30:54.629Z,61.94
2018-07-04T00:31:54.694Z,62.04
2018-07-04T00:33:47.677Z,62.04
2018-07-04T00:34:47.741Z,62.04
2018-07-04T00:36:40.742Z,61.65
2018-07-04T00:37:40.798Z,61.65
2018-07-04T00:39:33.794Z,61.36
2018-07-04T00:40:33.858Z,61.75
2018-07-04T00:42:26.862Z,61.17
2018-07-04T00:43:26.920Z,60.69
2018-07-04T00:45:19.914Z,60.47
2018-07-04T00:46:19.980Z,60.57
2018-07-04T00:48:12.980Z,59.99
2018-07-04T00:49:13.040Z,59.22
2018-07-04T00:51:06.029Z,58.64
2018-07-04T00:52:06.097Z,58.26
2018-07-04T00:53:59.098Z,58.74
2018-07-04T00:54:59.152Z,58.36
2018-07-04T00:56:52.152Z,58.36
2018-07-04T00:57:52.212Z,58.74
2018-07-04T00:59:45.203Z,58.45
2018-07-04T01:00:45.267Z,57.88
2018-07-04T01:02:38.267Z,57.78
2018-07-04T01:03:38.330Z,57.68
2018-07-04T01:05:31.317Z,57.68
2018-07-04T01:06:31.384Z,57.68
2018-07-04T01:08:24.382Z,57.88
2018-07-04T01:09:24.443Z,57.11
2018-07-04T01:11:17.442Z,56.92
2018-07-04T01:12:17.503Z,56.89
2018-07-04T01:14:10.498Z,56.70
2018-07-04T01:15:10.556Z,56.60
2018-07-04T01:17:03.560Z,56.60
2018-07-04T01:18:03.613Z,56.12
2018-07-04T01:19:56.608Z,56.02
2018-07-04T01:20:56.674Z,56.12
2018-07-04T01:22:49.673Z,55.93
2018-07-04T01:23:49.746Z,55.93
2018-07-04T01:25:42.724Z,55.35
2018-07-04T01:26:42.790Z,56.02
2018-07-04T01:28:35.797Z,55.55
2018-07-04T01:29:35.856Z,55.55
2018-07-04T01:31:28.855Z,55.55
2018-07-04T01:32:31.881Z,55.26
2018-07-04T01:34:21.912Z,55.07
2018-07-04T01:35:21.971Z,55.07
2018-07-04T01:37:14.970Z,55.26
2018-07-04T01:38:15.029Z,54.78
2018-07-04T01:40:08.021Z,54.68
2018-07-04T01:41:08.084Z,54.88
2018-07-04T01:43:01.086Z,54.58
2018-07-04T01:44:01.145Z,54.11
2018-07-04T01:45:54.140Z,53.82
2018-07-04T01:46:54.202Z,53.79
2018-07-04T01:48:47.199Z,53.82
2018-07-04T01:49:47.258Z,53.31
2018-07-04T01:51:40.251Z,53.63
2018-07-04T01:52:40.318Z,53.89
2018-07-04T01:54:33.312Z,53.72
2018-07-04T01:55:33.373Z,53.79
2018-07-04T01:57:26.373Z,53.31
2018-07-04T01:58:26.426Z,53.50
2018-07-04T02:00:19.422Z,53.22
2018-07-04T02:01:19.483Z,53.12
2018-07-04T02:03:12.484Z,52.64
2018-07-04T02:04:12.543Z,52.64
2018-07-04T02:06:05.538Z,53.03
2018-07-04T02:07:05.600Z,53.22
2018-07-04T02:08:58.596Z,52.83
2018-07-04T02:09:58.656Z,52.64
2018-07-04T02:11:51.647Z,52.55
2018-07-04T02:12:51.712Z,53.22
2018-07-04T02:14:44.714Z,52.93
2018-07-04T02:15:44.769Z,53.22
2018-07-04T02:17:37.772Z,53.12
2018-07-04T02:18:37.829Z,53.50
2018-07-04T02:20:30.827Z,53.70
2018-07-04T02:21:30.884Z,53.79
2018-07-04T02:23:23.885Z,54.08
2018-07-04T02:24:23.941Z,53.79
2018-07-04T02:26:16.953Z,53.70
2018-07-04T02:27:16.998Z,53.79
2018-07-04T02:29:09.998Z,54.30
2018-07-04T02:30:10.058Z,53.70
2018-07-04T02:32:03.052Z,54.37
2018-07-04T02:33:03.119Z,54.56
2018-07-04T02:34:56.115Z,54.58
2018-07-04T02:35:56.173Z,54.27
2018-07-04T02:37:49.165Z,55.16
2018-07-04T02:38:49.228Z,54.68
2018-07-04T02:40:42.226Z,55.26
2018-07-04T02:41:42.284Z,54.88
2018-07-04T02:43:35.293Z,54.94
2018-07-04T02:44:35.340Z,55.04
2018-07-04T02:46:29.832Z,54.75
2018-07-04T02:47:29.893Z,54.66
2018-07-04T02:49:22.893Z,55.13
2018-07-04T02:50:23.187Z,55.13
2018-07-04T02:52:15.941Z,55.33
2018-07-04T02:53:16.007Z,55.23
2018-07-04T02:55:09.009Z,55.35
2018-07-04T02:56:09.062Z,55.13
2018-07-04T02:58:02.062Z,55.26
2018-07-04T02:59:02.120Z,55.33
2018-07-04T03:00:55.125Z,54.75
2018-07-04T03:01:55.183Z,54.94
2018-07-04T03:03:48.183Z,54.75
2018-07-04T03:04:48.240Z,54.46
2018-07-04T03:06:41.242Z,54.46
2018-07-04T03:07:41.297Z,54.56
2018-07-04T03:09:34.292Z,54.17
2018-07-04T03:10:34.350Z,53.70
2018-07-04T03:12:27.344Z,53.99
2018-07-04T03:13:27.409Z,54.27
2018-07-04T03:15:20.409Z,53.99
2018-07-04T03:16:20.464Z,54.05
2018-07-04T03:18:13.457Z,53.09
2018-07-04T03:19:13.521Z,52.71
2018-07-04T03:21:06.523Z,53.09
2018-07-04T03:22:06.579Z,53.09
2018-07-04T03:23:59.570Z,53.38
2018-07-04T03:24:59.638Z,53.28
2018-07-04T03:26:52.639Z,53.67
2018-07-04T03:27:52.692Z,53.58
2018-07-04T03:29:45.692Z,53.28
2018-07-04T03:30:45.749Z,53.67
2018-07-04T03:32:38.740Z,53.58
2018-07-04T03:33:38.804Z,53.67
2018-07-04T03:35:31.845Z,53.86
2018-07-04T03:36:31.859Z,53.99
2018-07-04T03:38:24.850Z,54.08
2018-07-04T03:39:24.917Z,54.85
2018-07-04T03:41:17.914Z,55.13
2018-07-04T03:42:17.969Z,54.56
2018-07-04T03:44:10.960Z,54.56
2018-07-04T03:45:11.024Z,55.33
2018-07-04T03:47:04.533Z,54.85
2018-07-04T03:48:04.588Z,54.75
2018-07-04T03:49:57.579Z,53.86
2018-07-04T03:50:57.642Z,53.89
2018-07-04T03:52:50.640Z,53.67
2018-07-04T03:53:50.696Z,53.58
2018-07-04T03:55:43.695Z,52.71
2018-07-04T03:56:43.752Z,52.81
2018-07-04T03:58:36.746Z,52.62
2018-07-04T03:59:36.806Z,52.23
2018-07-04T04:01:29.803Z,52.91
2018-07-04T04:02:29.861Z,53.77
2018-07-04T04:04:22.851Z,54.24
2018-07-04T04:05:22.914Z,54.75
2018-07-04T04:07:15.957Z,54.85
2018-07-04T04:08:15.972Z,53.60
2018-07-04T04:10:08.959Z,54.75
2018-07-04T04:11:09.058Z,54.56
2018-07-04T04:13:02.023Z,54.37
2018-07-04T04:14:02.081Z,54.46
2018-07-04T04:15:55.087Z,54.56
2018-07-04T04:16:55.135Z,55.42
2018-07-04T04:18:48.125Z,55.33
2018-07-04T04:19:48.234Z,54.56
2018-07-04T04:21:41.186Z,55.13
2018-07-04T04:22:41.244Z,55.13
2018-07-04T04:24:34.236Z,56.00
2018-07-04T04:25:34.299Z,55.71
2018-07-04T04:27:27.298Z,56.22
2018-07-04T04:28:27.353Z,56.12
2018-07-04T04:30:20.345Z,57.08
2018-07-04T04:31:20.409Z,56.98
2018-07-04T04:33:13.404Z,57.08
2018-07-04T04:34:13.463Z,55.93
2018-07-04T04:36:06.462Z,56.41
2018-07-04T04:37:06.523Z,56.12
2018-07-04T04:38:59.525Z,57.08
2018-07-04T04:39:59.582Z,57.65
2018-07-04T04:41:52.588Z,58.23
2018-07-04T04:42:52.639Z,57.97
2018-07-04T04:44:45.631Z,57.95
2018-07-04T04:45:45.694Z,57.88
2018-07-04T04:47:38.697Z,59.03
2018-07-04T04:48:38.756Z,58.74
2018-07-04T04:50:31.745Z,58.84
2018-07-04T04:51:31.807Z,59.03
2018-07-04T04:53:24.809Z,58.64
2018-07-04T04:54:24.879Z,59.03
2018-07-04T04:56:17.857Z,58.84
2018-07-04T04:57:17.921Z,59.89
2018-07-04T04:59:10.919Z,59.61
2018-07-04T05:00:10.977Z,60.38
2018-07-04T05:02:03.975Z,59.99
2018-07-04T05:03:04.040Z,60.50
2018-07-04T05:04:57.039Z,60.78
2018-07-04T05:05:57.095Z,60.98
2018-07-04T05:07:50.110Z,60.78
2018-07-04T05:08:50.151Z,60.60
2018-07-04T05:10:43.144Z,60.69
2018-07-04T05:11:43.207Z,60.47
2018-07-04T05:13:36.208Z,59.89
2018-07-04T05:14:36.263Z,60.85
2018-07-04T05:16:29.257Z,59.70
2018-07-04T05:17:29.323Z,60.28
2018-07-04T05:19:22.324Z,60.28
2018-07-04T05:20:22.379Z,59.99
2018-07-04T05:22:15.372Z,60.47
2018-07-04T05:23:15.436Z,60.66
2018-07-04T05:25:08.435Z,59.89
2018-07-04T05:26:08.493Z,60.08
2018-07-04T05:28:01.514Z,59.70
2018-07-04T05:29:01.552Z,60.38
2018-07-04T05:30:54.543Z,60.18
2018-07-04T05:31:54.611Z,60.18
2018-07-04T05:33:47.609Z,60.88
2018-07-04T05:34:47.665Z,61.94
2018-07-04T05:36:40.658Z,61.84
2018-07-04T05:37:40.723Z,61.55
2018-07-04T05:39:33.728Z,61.46
2018-07-04T05:40:33.786Z,61.84
2018-07-04T05:42:26.926Z,61.55
2018-07-04T05:43:26.849Z,61.65
2018-07-04T05:45:19.845Z,62.13
2018-07-04T05:46:19.904Z,62.23
2018-07-04T05:48:12.901Z,61.55
2018-07-04T05:49:12.958Z,62.23
2018-07-04T05:51:05.951Z,62.99
2018-07-04T05:52:06.116Z,61.75
2018-07-04T05:53:59.014Z,62.84
2018-07-04T05:54:59.073Z,63.79
2018-07-04T05:56:52.064Z,63.32
2018-07-04T05:57:52.129Z,63.32
2018-07-04T05:59:45.128Z,63.32
2018-07-04T06:00:45.235Z,62.35
2018-07-04T06:02:38.229Z,63.02
2018-07-04T06:03:38.245Z,62.93
2018-07-04T06:05:31.248Z,63.41
2018-07-04T06:06:31.306Z,63.35
2018-07-04T06:08:24.346Z,63.92
2018-07-04T06:09:24.422Z,63.73
2018-07-04T06:11:17.361Z,63.83
2018-07-04T06:12:17.428Z,63.54
2018-07-04T06:14:10.429Z,64.50
2018-07-04T06:15:10.486Z,63.83
2018-07-04T06:17:03.503Z,63.54
2018-07-04T06:18:03.544Z,64.50
2018-07-04T06:19:56.544Z,64.50
2018-07-04T06:20:56.601Z,64.73
2018-07-04T06:22:49.595Z,65.11
2018-07-04T06:23:49.659Z,64.73
2018-07-04T06:25:42.657Z,65.88
2018-07-04T06:26:42.717Z,65.50
2018-07-04T06:28:35.710Z,66.55
2018-07-04T06:29:35.774Z,66.30
2018-07-04T06:31:28.781Z,67.07
2018-07-04T06:32:28.885Z,67.26
2018-07-04T06:34:21.836Z,67.49
2018-07-04T06:35:21.895Z,67.19
2018-07-04T06:37:14.889Z,67.35
2018-07-04T06:38:14.955Z,67.87
2018-07-04T06:40:07.964Z,67.97
2018-07-04T06:41:08.016Z,68.16
2018-07-04T06:43:01.010Z,69.35
2018-07-04T06:44:01.075Z,69.64
2018-07-04T06:45:54.079Z,71.12
2018-07-04T06:46:54.141Z,71.22
2018-07-04T06:48:47.184Z,72.73
2018-07-04T06:49:47.200Z,73.03
2018-07-04T06:51:40.214Z,70.08
2018-07-04T06:52:40.268Z,67.63
2018-07-04T06:54:33.422Z,60.48
2018-07-04T06:55:33.345Z,60.91
2018-07-04T06:57:26.349Z,64.72
2018-07-04T06:58:26.418Z,65.98
2018-07-04T07:00:19.426Z,67.66
2018-07-04T07:01:19.494Z,67.91
2018-07-04T07:03:12.485Z,66.88
2018-07-04T07:04:12.555Z,64.20
2018-07-04T07:06:05.558Z,56.22
2018-07-04T07:07:05.625Z,51.70
2018-07-04T07:08:58.635Z,48.97
2018-07-04T07:09:58.699Z,48.56
2018-07-04T07:11:51.706Z,46.56
2018-07-04T07:12:51.773Z,47.15
2018-07-04T07:14:44.780Z,52.86
2018-07-04T07:15:44.852Z,55.60
2018-07-04T07:17:37.863Z,61.04
2018-07-04T07:18:37.932Z,62.59
2018-07-04T07:20:30.939Z,64.75
2018-07-04T07:21:31.004Z,65.69
2018-07-04T07:23:24.012Z,67.88
2018-07-04T07:24:24.080Z,68.37
2018-07-04T07:26:17.089Z,68.46
2018-07-04T07:27:17.339Z,68.75
2018-07-04T07:29:10.170Z,68.37
2018-07-04T07:30:10.229Z,68.43
2018-07-04T07:32:03.753Z,69.14
2018-07-04T07:33:03.811Z,68.40
2018-07-04T07:34:56.815Z,68.66
2018-07-04T07:35:56.883Z,69.14
2018-07-04T07:37:49.891Z,67.82
2018-07-04T07:38:49.954Z,67.95
2018-07-04T07:40:42.972Z,66.72
2018-07-04T07:41:43.026Z,62.49
2018-07-04T07:43:36.030Z,52.92
2018-07-04T07:44:36.097Z,51.67
2018-07-04T07:46:29.106Z,50.97
2018-07-04T07:47:29.170Z,50.46
2018-07-04T07:49:22.179Z,45.21
2018-07-04T07:50:22.251Z,42.77
2018-07-04T07:52:15.265Z,45.58
2018-07-04T07:53:15.331Z,46.49
2018-07-04T07:55:08.338Z,45.44
2018-07-04T07:56:08.414Z,47.15
2018-07-04T07:58:01.438Z,49.85
2018-07-04T07:59:01.492Z,49.76
2018-07-04T08:00:54.509Z,49.85
2018-07-04T08:01:54.619Z,49.76
2018-07-04T08:03:47.600Z,48.85
2018-07-04T08:04:47.665Z,50.09
2018-07-04T08:06:40.682Z,53.74
2018-07-04T08:07:40.748Z,54.13
2018-07-04T08:09:33.760Z,48.68
2018-07-04T08:10:33.831Z,47.42
2018-07-04T08:12:26.849Z,47.98
2018-07-04T08:13:26.917Z,47.83
2018-07-04T08:15:19.926Z,43.57
2018-07-04T08:16:20.004Z,40.72
2018-07-04T08:18:13.021Z,41.72
2018-07-04T08:19:13.089Z,42.30
2018-07-04T08:21:06.102Z,44.24
2018-07-04T08:22:06.176Z,43.57
2018-07-04T08:23:59.196Z,42.19
2018-07-04T08:24:59.264Z,41.07
2018-07-04T08:26:52.279Z,37.76
2018-07-04T08:27:52.357Z,36.24
2018-07-04T08:29:45.379Z,34.94
2018-07-04T08:30:45.447Z,33.49
2018-07-04T08:32:38.983Z,31.90
2018-07-04T08:33:39.050Z,31.72
2018-07-04T08:35:32.065Z,31.42
2018-07-04T08:36:32.147Z,31.62
2018-07-04T08:38:25.169Z,31.34
2018-07-04T08:39:25.251Z,30.96
2018-07-04T08:41:18.262Z,30.48
2018-07-04T08:42:18.342Z,30.83
2018-07-04T08:44:11.375Z,33.15
2018-07-04T08:45:11.440Z,33.48
2018-07-04T08:47:04.464Z,34.08
2018-07-04T08:48:04.544Z,34.03
2018-07-04T08:49:57.569Z,30.34
2018-07-04T08:50:57.643Z,30.52
2018-07-04T08:52:50.674Z,30.57
2018-07-04T08:53:50.746Z,29.58
2018-07-04T08:55:43.774Z,29.39
2018-07-04T08:56:43.848Z,29.38
2018-07-04T08:58:36.923Z,30.22
2018-07-04T08:59:36.958Z,30.41
2018-07-04T09:01:29.970Z,31.95
2018-07-04T09:02:30.051Z,32.82
2018-07-04T09:04:23.079Z,32.93
2018-07-04T09:05:23.152Z,32.15
2018-07-04T09:07:16.175Z,32.08
2018-07-04T09:08:16.253Z,31.79
2018-07-04T09:10:09.279Z,33.80
2018-07-04T09:11:09.351Z,33.87
2018-07-04T09:13:02.377Z,34.34
2018-07-04T09:14:02.455Z,34.81
2018-07-04T09:15:55.482Z,35.50
2018-07-04T09:16:55.561Z,34.83
2018-07-04T09:18:48.581Z,34.30
2018-07-04T09:19:48.681Z,33.25
2018-07-04T09:21:41.676Z,32.70
2018-07-04T09:22:41.753Z,32.23
2018-07-04T09:24:34.780Z,30.35
2018-07-04T09:25:34.848Z,31.52
2018-07-04T09:27:27.869Z,30.80
2018-07-04T09:28:27.947Z,31.48
2018-07-04T09:30:20.972Z,32.72
2018-07-04T09:31:21.045Z,32.34
2018-07-04T09:33:14.063Z,31.20
2018-07-04T09:34:14.141Z,31.20
2018-07-04T09:36:07.185Z,31.36
2018-07-04T09:37:07.256Z,33.77
2018-07-04T09:39:00.285Z,35.68
2018-07-04T09:40:00.357Z,36.16
2018-07-04T09:41:53.374Z,36.90
2018-07-04T09:42:53.453Z,37.39
2018-07-04T09:44:46.477Z,37.49
2018-07-04T09:45:46.547Z,36.61
2018-07-04T09:47:39.599Z,39.15
2018-07-04T09:48:39.640Z,37.37
2018-07-04T09:50:32.660Z,40.09
2018-07-04T09:51:32.730Z,38.43
2018-07-04T09:53:25.743Z,39.10
2018-07-04T09:54:25.818Z,38.81
2018-07-04T09:56:18.838Z,38.98
2018-07-04T09:57:18.905Z,41.33
2018-07-04T09:59:11.927Z,40.06
2018-07-04T10:00:11.994Z,40.84
2018-07-04T10:02:05.010Z,42.69
2018-07-04T10:03:05.081Z,40.74
2018-07-04T10:04:58.101Z,39.98
2018-07-04T10:05:58.167Z,39.98
2018-07-04T10:07:51.185Z,40.45
2018-07-04T10:08:51.253Z,40.74
2018-07-04T10:10:44.271Z,41.41
2018-07-04T10:11:44.338Z,41.19
2018-07-04T10:13:37.354Z,40.70
2018-07-04T10:14:37.423Z,40.29
2018-07-04T10:16:30.440Z,41.15
2018-07-04T10:17:30.510Z,42.22
2018-07-04T10:19:23.527Z,42.54
2018-07-04T10:20:23.593Z,42.93
2018-07-04T10:22:16.609Z,42.02
2018-07-04T10:23:16.683Z,42.90
2018-07-04T10:25:09.699Z,42.20
2018-07-04T10:26:09.765Z,42.49
2018-07-04T10:28:02.774Z,41.71
2018-07-04T10:29:02.847Z,41.54
2018-07-04T10:30:55.867Z,42.02
2018-07-04T10:31:55.927Z,42.41
2018-07-04T10:33:48.941Z,41.44
2018-07-04T10:34:49.016Z,41.66
2018-07-04T10:36:42.035Z,41.17
2018-07-04T10:37:42.113Z,40.39
2018-07-04T10:39:35.108Z,44.58
2018-07-04T10:40:35.174Z,42.63
2018-07-04T10:42:28.184Z,40.70
2018-07-04T10:43:28.255Z,43.22
2018-07-04T10:45:21.272Z,44.68
2018-07-04T10:46:21.337Z,40.97
2018-07-04T10:48:14.345Z,40.70
2018-07-04T10:49:14.415Z,40.80
2018-07-04T10:51:07.427Z,39.51
2018-07-04T10:52:07.495Z,40.09
2018-07-04T10:54:00.503Z,40.37
2018-07-04T10:55:00.574Z,41.15
2018-07-04T10:56:53.590Z,42.41
2018-07-04T10:57:53.682Z,42.59
2018-07-04T10:59:46.694Z,41.83
2018-07-04T11:00:46.733Z,41.05
2018-07-04T11:02:39.743Z,41.93
2018-07-04T11:03:39.814Z,41.44
2018-07-04T11:05:32.827Z,40.76
2018-07-04T11:06:32.892Z,42.80
2018-07-04T11:08:25.903Z,40.64
2018-07-04T11:09:25.973Z,40.83
2018-07-04T11:11:18.999Z,41.54
2018-07-04T11:12:19.057Z,41.13
2018-07-04T11:14:12.070Z,41.13
2018-07-04T11:15:12.138Z,40.64
2018-07-04T11:17:05.323Z,40.47
2018-07-04T11:18:05.240Z,40.66
2018-07-04T11:19:58.223Z,40.66
2018-07-04T11:20:58.294Z,40.73
2018-07-04T11:22:51.312Z,40.16
2018-07-04T11:23:51.376Z,40.66
2018-07-04T11:25:44.387Z,42.22
2018-07-04T11:26:44.452Z,41.54
2018-07-04T11:28:37.461Z,39.39
2018-07-04T11:29:37.530Z,39.51
2018-07-04T11:31:30.547Z,39.41
2018-07-04T11:32:30.607Z,42.83
2018-07-04T11:34:23.615Z,39.31
2018-07-04T11:35:23.685Z,40.68
2018-07-04T11:37:16.699Z,40.89
2018-07-04T11:38:16.806Z,39.62
2018-07-04T11:40:09.768Z,39.53
2018-07-04T11:41:09.840Z,39.31
2018-07-04T11:43:02.854Z,40.01
2018-07-04T11:44:02.917Z,42.85
2018-07-04T11:45:55.930Z,40.66
2018-07-04T11:46:55.996Z,41.63
2018-07-04T11:48:49.004Z,41.73
2018-07-04T11:49:49.071Z,43.59
2018-07-04T11:51:42.087Z,41.09
2018-07-04T11:52:42.152Z,46.07
2018-07-04T11:54:35.164Z,40.33
2018-07-04T11:55:35.228Z,40.04
2018-07-04T11:57:28.238Z,40.14
2018-07-04T11:58:28.308Z,39.94
2018-07-04T12:00:21.315Z,42.29
2018-07-04T12:01:21.388Z,39.75
2018-07-04T12:03:14.398Z,38.96
2018-07-04T12:04:14.463Z,39.16
2018-07-04T12:06:07.475Z,39.75
2018-07-04T12:07:07.541Z,40.23
2018-07-04T12:09:00.549Z,39.45
2018-07-04T12:10:00.620Z,40.53
2018-07-04T12:11:53.630Z,40.31
2018-07-04T12:12:53.695Z,44.12
2018-07-04T12:14:46.701Z,42.29
2018-07-04T12:15:46.775Z,41.21
2018-07-04T12:17:39.784Z,42.48
2018-07-04T12:18:39.848Z,39.45
2018-07-04T12:20:32.863Z,39.55
2018-07-04T12:21:32.936Z,39.65
2018-07-04T12:23:25.948Z,39.45
2018-07-04T12:24:26.013Z,39.06
2018-07-04T12:26:19.020Z,39.96
2018-07-04T12:27:19.089Z,39.45
2018-07-04T12:29:12.104Z,39.55
2018-07-04T12:30:12.170Z,40.72
2018-07-04T12:32:05.781Z,39.57
2018-07-04T12:33:05.755Z,39.94
2018-07-04T12:34:58.764Z,39.45
2018-07-04T12:35:58.836Z,39.96
2018-07-04T12:37:51.845Z,39.65
2018-07-04T12:38:51.912Z,39.96
2018-07-04T12:40:44.921Z,39.55
2018-07-04T12:41:44.997Z,40.06
2018-07-04T12:43:38.098Z,39.06
2018-07-04T12:44:38.069Z,41.89
2018-07-04T12:46:31.078Z,41.60
2018-07-04T12:47:31.146Z,39.45
2018-07-04T12:49:24.160Z,39.47
2018-07-04T12:50:24.225Z,39.26
2018-07-04T12:52:17.236Z,42.01
2018-07-04T12:53:17.300Z,40.06
2018-07-04T12:55:10.307Z,38.98
2018-07-04T12:56:10.380Z,38.98
2018-07-04T12:58:03.392Z,39.47
2018-07-04T12:59:03.456Z,40.53
2018-07-04T13:00:56.464Z,40.04
2018-07-04T13:01:56.536Z,39.75
2018-07-04T13:03:49.549Z,38.48
2018-07-04T13:04:49.609Z,38.87
2018-07-04T13:06:42.624Z,38.87
2018-07-04T13:07:42.692Z,39.16
2018-07-04T13:09:35.702Z,39.06
2018-07-04T13:10:35.767Z,39.94
2018-07-04T13:12:28.782Z,39.55
2018-07-04T13:13:28.845Z,41.21
2018-07-04T13:15:21.860Z,39.36
2018-07-04T13:16:21.927Z,41.33
2018-07-04T13:18:14.944Z,42.68
2018-07-04T13:19:15.009Z,38.96
2018-07-04T13:21:08.014Z,39.94
2018-07-04T13:22:08.085Z,41.52
2018-07-04T13:24:01.090Z,38.69
2018-07-04T13:25:01.158Z,43.08
2018-07-04T13:26:54.164Z,39.78
2018-07-04T13:27:54.233Z,38.98
2018-07-04T13:29:47.253Z,38.89
2018-07-04T13:30:47.319Z,37.91
2018-07-04T13:32:40.836Z,37.41
2018-07-04T13:33:40.905Z,37.62
2018-07-04T13:35:33.914Z,38.89
2018-07-04T13:36:33.981Z,39.47
2018-07-04T13:38:27.045Z,39.20
2018-07-04T13:39:27.058Z,39.00
2018-07-04T13:41:20.067Z,38.81
2018-07-04T13:42:20.136Z,40.76
2018-07-04T13:44:13.181Z,40.56
2018-07-04T13:45:13.212Z,38.12
2018-07-04T13:47:06.221Z,39.59
2018-07-04T13:48:06.291Z,43.40
2018-07-04T13:49:59.301Z,41.46
2018-07-04T13:50:59.645Z,41.15
2018-07-04T13:52:52.372Z,41.25
2018-07-04T13:53:52.444Z,42.03
2018-07-04T13:55:45.463Z,42.71
2018-07-04T13:56:45.521Z,40.66
2018-07-04T13:58:38.552Z,39.59
2018-07-04T13:59:38.599Z,39.10
2018-07-04T14:01:31.604Z,40.19
2018-07-04T14:02:31.688Z,38.53
2018-07-04T14:04:24.689Z,40.80
2018-07-04T14:05:24.754Z,40.19
2018-07-04T14:07:17.763Z,37.35
2018-07-04T14:08:17.833Z,37.65
2018-07-04T14:10:10.897Z,40.09
2018-07-04T14:11:10.912Z,40.19
2018-07-04T14:13:03.918Z,40.78
2018-07-04T14:14:03.989Z,40.09
2018-07-04T14:15:57.003Z,40.09
2018-07-04T14:16:57.070Z,38.55
2018-07-04T14:18:50.101Z,38.94
2018-07-04T14:19:50.145Z,40.31
2018-07-04T14:21:43.157Z,38.84
2018-07-04T14:22:43.222Z,37.47
2018-07-04T14:24:36.233Z,38.92
2018-07-04T14:25:36.315Z,39.22
2018-07-04T14:27:29.313Z,41.07
2018-07-04T14:28:29.381Z,41.17
2018-07-04T14:30:22.398Z,39.41
2018-07-04T14:31:22.469Z,38.53
2018-07-04T14:33:15.473Z,41.54
2018-07-04T14:34:15.543Z,39.98
2018-07-04T14:36:08.554Z,40.95
2018-07-04T14:37:08.620Z,40.86
2018-07-04T14:39:01.633Z,41.91
2018-07-04T14:40:01.703Z,42.01
2018-07-04T14:41:54.718Z,41.80
2018-07-04T14:42:54.780Z,41.80
2018-07-04T14:44:47.792Z,42.75
2018-07-04T14:45:47.857Z,43.14
2018-07-04T14:47:40.871Z,43.43
2018-07-04T14:48:40.936Z,46.92
2018-07-04T14:50:33.949Z,51.97
2018-07-04T14:51:34.013Z,56.82
2018-07-04T14:53:27.020Z,62.12
2018-07-04T14:54:27.093Z,66.56
2018-07-04T14:56:20.135Z,69.38
2018-07-04T14:57:20.191Z,70.75
2018-07-04T14:59:13.194Z,70.32
2018-07-04T15:00:13.266Z,69.93
2018-07-04T15:02:06.340Z,69.38
2018-07-04T15:03:06.342Z,69.86
2018-07-04T15:04:59.354Z,66.53
2018-07-04T15:05:59.419Z,63.43
2018-07-04T15:07:52.430Z,66.40
2018-07-04T15:08:52.494Z,65.43
2018-07-04T15:10:45.521Z,57.39
2018-07-04T15:11:45.586Z,55.54
2018-07-04T15:13:38.585Z,49.70
2018-07-04T15:14:38.655Z,46.43
2018-07-04T15:16:31.664Z,55.35
2018-07-04T15:17:31.731Z,57.78
2018-07-04T15:19:24.734Z,45.95
2018-07-04T15:20:24.800Z,47.81
2018-07-04T15:22:17.851Z,49.27
2018-07-04T15:23:17.872Z,44.51
2018-07-04T15:25:10.879Z,46.38
2018-07-04T15:26:10.947Z,45.51
2018-07-04T15:28:04.490Z,48.03
2018-07-04T15:29:04.527Z,43.78
2018-07-04T15:30:57.548Z,47.40
2018-07-04T15:31:57.601Z,43.90
2018-07-04T15:33:50.608Z,45.36
2018-07-04T15:34:50.675Z,60.61
2018-07-04T15:36:43.689Z,54.39
2018-07-04T15:37:43.751Z,49.27
2018-07-04T15:39:36.758Z,50.16
2018-07-04T15:40:36.823Z,54.42
2018-07-04T15:42:29.833Z,51.04
2018-07-04T15:43:29.895Z,49.00
2018-07-04T15:45:22.904Z,55.35
2018-07-04T15:46:22.973Z,60.70
2018-07-04T15:48:15.981Z,58.46
2018-07-04T15:49:16.047Z,56.35
2018-07-04T15:51:09.057Z,67.70
2018-07-04T15:52:09.120Z,62.74
2018-07-04T15:54:02.132Z,63.32
2018-07-04T15:55:02.196Z,61.87
2018-07-04T15:56:55.207Z,61.02
2018-07-04T15:57:55.271Z,66.83
2018-07-04T15:59:48.413Z,66.63
2018-07-04T16:00:48.348Z,65.56
2018-07-04T16:02:41.364Z,66.24
2018-07-04T16:03:41.428Z,65.79
2018-07-04T16:05:34.944Z,67.02
2018-07-04T16:06:35.015Z,69.16
2018-07-04T16:08:28.054Z,64.04
2018-07-04T16:09:28.099Z,64.29
2018-07-04T16:11:21.100Z,67.99
2018-07-04T16:12:21.177Z,66.83
2018-07-04T16:14:14.184Z,67.90
2018-07-04T16:15:14.248Z,67.99
2018-07-04T16:17:07.258Z,68.48
2018-07-04T16:18:07.321Z,68.41
2018-07-04T16:20:01.836Z,69.35
2018-07-04T16:21:01.906Z,69.65
2018-07-04T16:22:56.422Z,69.26
2018-07-04T16:23:56.491Z,69.06
2018-07-04T16:25:50.002Z,68.29
2018-07-04T16:26:50.067Z,70.62
2018-07-04T16:28:43.588Z,69.06
2018-07-04T16:29:43.649Z,69.90
2018-07-04T16:31:36.658Z,68.84
2018-07-04T16:32:36.791Z,71.26
2018-07-04T16:34:29.738Z,68.35
2018-07-04T16:35:29.802Z,69.61
2018-07-04T16:37:22.807Z,69.32
2018-07-04T16:38:22.873Z,70.00
2018-07-04T16:40:17.415Z,69.51
2018-07-04T16:41:17.468Z,69.61
2018-07-04T16:43:10.480Z,70.16
2018-07-04T16:44:10.546Z,68.74
2018-07-04T16:46:03.549Z,68.93
2018-07-04T16:47:03.620Z,69.32
2018-07-04T16:48:56.635Z,69.87
2018-07-04T16:49:56.716Z,70.36
2018-07-04T16:51:49.697Z,69.48
2018-07-04T16:52:49.767Z,68.80
2018-07-04T16:54:43.287Z,68.60
2018-07-04T16:55:43.346Z,69.35
2018-07-04T16:57:36.898Z,69.35
2018-07-04T16:58:36.925Z,69.60
2018-07-04T17:00:31.447Z,70.19
2018-07-04T17:01:31.507Z,70.09
2018-07-04T17:03:25.028Z,69.51
2018-07-04T17:04:25.093Z,68.83
2018-07-04T17:06:18.089Z,68.93
2018-07-04T17:07:18.162Z,69.70
2018-07-04T17:09:11.682Z,70.19
2018-07-04T17:10:11.742Z,71.12
2018-07-04T17:12:04.781Z,68.41
2018-07-04T17:13:04.812Z,69.96
2018-07-04T17:14:57.836Z,70.25
2018-07-04T17:15:57.900Z,70.35
2018-07-04T17:17:50.899Z,68.41
2018-07-04T17:18:50.968Z,69.67
2018-07-04T17:20:43.975Z,68.89
2018-07-04T17:21:44.038Z,68.89
2018-07-04T17:23:37.068Z,70.45
2018-07-04T17:24:37.116Z,70.03
2018-07-04T17:26:30.209Z,69.54
2018-07-04T17:27:30.202Z,69.54
2018-07-04T17:29:23.213Z,69.67
2018-07-04T17:30:23.275Z,68.66
2018-07-04T17:32:16.282Z,70.31
2018-07-04T17:33:16.355Z,70.03
2018-07-04T17:35:09.367Z,70.03
2018-07-04T17:36:09.441Z,69.93
2018-07-04T17:38:02.486Z,70.03
2018-07-04T17:39:02.503Z,70.21
2018-07-04T17:40:55.511Z,68.08
2018-07-04T17:41:55.575Z,69.93
2018-07-04T17:43:48.580Z,69.15
2018-07-04T17:44:48.647Z,71.28
2018-07-04T17:46:41.700Z,69.83
2018-07-04T17:47:41.728Z,70.80
2018-07-04T17:49:34.743Z,70.86
2018-07-04T17:50:34.801Z,70.86
2018-07-04T17:52:27.822Z,70.51
2018-07-04T17:53:27.939Z,70.18
2018-07-04T17:55:20.887Z,70.21
2018-07-04T17:56:20.949Z,71.48
2018-07-04T17:58:13.953Z,70.12
2018-07-04T17:59:14.021Z,70.12
2018-07-04T18:01:07.033Z,70.15
2018-07-04T18:02:07.095Z,68.79
2018-07-04T18:04:00.103Z,69.18
2018-07-04T18:05:00.170Z,69.09
2018-07-04T18:06:53.231Z,68.51
2018-07-04T18:07:53.239Z,68.35
2018-07-04T18:09:46.250Z,66.69
2018-07-04T18:10:46.312Z,66.60
2018-07-04T18:12:39.317Z,66.30
2018-07-04T18:13:39.383Z,66.40
2018-07-04T18:15:32.391Z,66.11
2018-07-04T18:16:32.451Z,65.82
2018-07-04T18:18:25.464Z,66.02
2018-07-04T18:19:25.541Z,65.82
2018-07-04T18:21:18.537Z,66.21
2018-07-04T18:22:18.603Z,66.30
2018-07-04T18:24:11.608Z,66.11
2018-07-04T18:25:11.675Z,66.24
2018-07-04T18:27:04.687Z,64.56
2018-07-04T18:28:04.745Z,65.37
2018-07-04T18:29:57.750Z,65.43
2018-07-04T18:30:57.885Z,66.82
2018-07-04T18:32:50.827Z,66.50
2018-07-04T18:33:50.889Z,68.25